Time,TemperatureF,DewpointF,PressureIn,WindDirection,WindDirectionDegrees,WindSpeedMPH,WindSpeedGustMPH,Humidity,HourlyPrecipIn,Conditions,Clouds,dailyrainin,SolarRadiationWatts/m^2,SoftwareType,DateUTC
2013-01-14 00:00:00,64.4,62.9,30.11,ESE,113,0.0,0.0,95,0.00,CLR,,0.00,0.0,WeatherDisplay:10.37,2013-01-14 05:00:00,
2013-01-14 00:05:00,64.4,62.9,30.11,ESE,113,0.0,0.0,95,0.00,CLR,,0.00,0.0,WeatherDisplay:10.37,2013-01-14 05:05:00,
2013-01-14 00:23:00,64.4,63.2,30.11,ESE,113,0.0,0.0,96,0.00,CLR,,0.00,0.0,WeatherDisplay:10.37,2013-01-14 05:23:00,
2013-01-14 00:28:00,64.3,63.1,30.11,ESE,113,0.0,0.0,96,0.00,CLR,,0.00,0.0,WeatherDisplay:10.37,2013-01-14 05:28:00,
2013-01-14 00:33:00,64.3,63.1,30.11,ESE,113,1.1,0.0,96,0.00,CLR,,0.00,0.0,WeatherDisplay:10.37,2013-01-14 05:33:00,
2013-01-14 00:44:00,64.5,63.3,30.11,ESE,113,1.1,1.1,96,0.00,CLR,,0.00,0.0,WeatherDisplay:10.37,2013-01-14 05:44:00,
2013-01-14 00:55:00,64.6,63.4,30.11,ESE,113,3.4,3.4,96,0.00,CLR,,0.00,0.0,WeatherDisplay:10.37,2013-01-14 05:55:00,
2013-01-14 01:00:00,64.6,63.4,30.11,ESE,113,2.3,2.3,96,0.00,CLR,,0.00,0.0,WeatherDisplay:10.37,2013-01-14 06:00:00,
2013-01-14 01:05:00,65.0,63.8,30.11,ESE,113,2.3,2.3,96,0.00,CLR,,0.00,0.0,WeatherDisplay:10.37,2013-01-14 06:05:00,
2013-01-14 01:14:00,65.2,64.0,30.11,ESE,113,0.0,0.2,96,0.00,CLR,,0.00,0.0,WeatherDisplay:10.37,2013-01-14 06:14:00,
2013-01-14 01:23:00,65.3,64.1,30.12,ESE,113,1.1,1.1,96,0.00,CLR,,0.00,0.0,WeatherDisplay:10.37,2013-01-14 06:23:00,
2013-01-14 01:28:00,65.2,64.0,30.12,ESE,113,0.0,0.0,96,0.00,CLR,,0.00,0.0,WeatherDisplay:10.37,2013-01-14 06:28:00,
2013-01-14 01:33:00,65.2,64.0,30.12,ESE,113,1.1,1.1,96,0.00,CLR,,0.00,0.0,WeatherDisplay:10.37,2013-01-14 06:33:00,
2013-01-14 01:38:00,65.3,64.1,30.12,ESE,113,1.1,1.1,96,0.00,CLR,,0.00,0.0,WeatherDisplay:10.37,2013-01-14 06:38:00,
2013-01-14 01:44:00,65.1,63.9,30.12,ESE,113,2.3,2.3,96,0.00,CLR,,0.00,0.0,WeatherDisplay:10.37,2013-01-14 06:44:00,
2013-01-14 01:49:00,65.0,63.8,30.12,ESE,113,1.1,1.1,96,0.00,CLR,,0.00,0.0,WeatherDisplay:10.37,2013-01-14 06:49:00,
2013-01-14 01:56:00,65.0,63.8,30.12,ESE,113,1.1,1.1,96,0.00,CLR,,0.00,0.0,WeatherDisplay:10.37,2013-01-14 06:56:00,
2013-01-14 02:00:00,65.2,64.3,30.12,ESE,113,0.0,0.0,97,0.00,CLR,,0.00,0.0,WeatherDisplay:10.37,2013-01-14 07:00:00,
2013-01-14 02:01:00,65.1,63.9,30.12,ESE,113,0.0,0.0,96,0.00,CLR,,0.00,0.0,WeatherDisplay:10.37,2013-01-14 07:01:00,
2013-01-14 02:06:00,65.0,63.8,30.12,ESE,113,1.1,1.1,96,0.00,CLR,,0.00,0.0,WeatherDisplay:10.37,2013-01-14 07:06:00,
2013-01-14 02:11:00,65.2,64.3,30.12,ESE,113,0.0,0.0,97,0.00,CLR,,0.00,0.0,WeatherDisplay:10.37,2013-01-14 07:11:00,
2013-01-14 02:16:00,65.1,64.2,30.12,ESE,113,0.0,0.0,97,0.00,CLR,,0.00,0.0,WeatherDisplay:10.37,2013-01-14 07:16:00,
2013-01-14 02:21:00,65.0,64.1,30.13,ESE,113,1.1,1.1,97,0.00,CLR,,0.00,0.0,WeatherDisplay:10.37,2013-01-14 07:21:00,
2013-01-14 02:35:00,65.4,64.5,30.12,ESE,113,1.1,1.1,97,0.00,CLR,,0.00,0.0,WeatherDisplay:10.37,2013-01-14 07:35:00,
2013-01-14 02:42:00,65.7,64.8,30.12,ESE,113,3.4,3.4,97,0.00,CLR,,0.00,0.0,WeatherDisplay:10.37,2013-01-14 07:42:00,
2013-01-14 02:53:00,65.9,64.7,30.12,ESE,113,2.3,2.3,96,0.00,CLR,,0.00,0.0,WeatherDisplay:10.37,2013-01-14 07:53:00,
2013-01-14 02:58:00,65.9,64.7,30.12,ESE,113,2.3,2.3,96,0.00,CLR,,0.00,0.0,WeatherDisplay:10.37,2013-01-14 07:58:00,
2013-01-14 03:00:00,65.9,64.7,30.12,ESE,113,1.1,1.1,96,0.00,CLR,,0.00,0.0,WeatherDisplay:10.37,2013-01-14 08:00:00,
2013-01-14 03:03:00,66.0,64.8,30.12,ESE,113,2.3,2.3,96,0.00,CLR,,0.00,0.0,WeatherDisplay:10.37,2013-01-14 08:03:00,
2013-01-14 03:08:00,65.9,64.4,30.12,ESE,113,2.3,2.3,95,0.00,CLR,,0.00,0.0,WeatherDisplay:10.37,2013-01-14 08:08:00,
2013-01-14 03:16:00,65.7,64.5,30.12,ESE,113,2.3,0.0,96,0.00,CLR,,0.00,0.0,WeatherDisplay:10.37,2013-01-14 08:16:00,
2013-01-14 03:27:00,65.4,64.2,30.12,ESE,113,0.0,0.0,96,0.00,CLR,,0.00,0.0,WeatherDisplay:10.37,2013-01-14 08:27:00,
2013-01-14 03:36:00,65.0,63.8,30.12,ESE,113,0.0,0.0,96,0.00,CLR,,0.00,0.0,WeatherDisplay:10.37,2013-01-14 08:36:00,
2013-01-14 03:45:00,65.0,63.8,30.11,ESE,113,2.3,2.3,96,0.00,CLR,,0.00,0.0,WeatherDisplay:10.37,2013-01-14 08:45:00,
2013-01-14 03:50:00,64.9,63.7,30.11,ESE,113,2.3,2.3,96,0.00,CLR,,0.00,0.0,WeatherDisplay:10.37,2013-01-14 08:50:00,
2013-01-14 03:56:00,65.2,64.0,30.11,ESE,113,3.4,3.4,96,0.00,CLR,,0.00,0.0,WeatherDisplay:10.37,2013-01-14 08:56:00,
2013-01-14 04:00:00,65.3,64.1,30.11,ESE,113,2.3,2.3,96,0.00,CLR,,0.00,0.0,WeatherDisplay:10.37,2013-01-14 09:00:00,
2013-01-14 04:01:00,65.2,64.0,30.11,ESE,113,2.3,2.3,96,0.00,CLR,,0.00,0.0,WeatherDisplay:10.37,2013-01-14 09:01:00,
2013-01-14 04:06:00,65.2,64.0,30.11,ESE,113,1.1,1.1,96,0.00,CLR,,0.00,0.0,WeatherDisplay:10.37,2013-01-14 09:06:00,
2013-01-14 04:13:00,65.2,64.0,30.11,ESE,113,2.3,2.3,96,0.00,CLR,,0.00,0.0,WeatherDisplay:10.37,2013-01-14 09:13:00,
2013-01-14 04:19:00,65.2,64.0,30.10,ESE,113,2.3,2.3,96,0.00,CLR,,0.00,0.0,WeatherDisplay:10.37,2013-01-14 09:19:00,
2013-01-14 04:25:00,65.2,64.0,30.10,ESE,113,3.4,3.4,96,0.00,CLR,,0.00,0.0,WeatherDisplay:10.37,2013-01-14 09:25:00,
2013-01-14 04:34:00,65.4,64.2,30.10,SE,128,4.6,4.6,96,0.00,CLR,,0.00,0.0,WeatherDisplay:10.37,2013-01-14 09:34:00,
2013-01-14 04:39:00,65.6,64.4,30.10,SE,140,6.9,6.9,96,0.00,CLR,,0.00,0.0,WeatherDisplay:10.37,2013-01-14 09:39:00,
2013-01-14 04:44:00,65.8,64.6,30.10,SE,130,4.6,4.6,96,0.00,CLR,,0.00,0.0,WeatherDisplay:10.37,2013-01-14 09:44:00,
2013-01-14 04:56:00,66.5,65.0,30.10,SE,140,4.6,4.6,95,0.00,CLR,,0.00,0.0,WeatherDisplay:10.37,2013-01-14 09:56:00,
2013-01-14 05:00:00,66.8,64.7,30.10,SE,128,4.6,4.6,93,0.00,CLR,,0.00,0.0,WeatherDisplay:10.37,2013-01-14 10:00:00,
2013-01-14 05:01:00,66.7,64.9,30.10,SE,128,5.8,5.8,94,0.00,CLR,,0.00,0.0,WeatherDisplay:10.37,2013-01-14 10:01:00,
2013-01-14 05:06:00,66.7,64.9,30.10,SE,128,4.6,4.6,94,0.00,CLR,,0.00,0.0,WeatherDisplay:10.37,2013-01-14 10:06:00,
2013-01-14 05:19:00,66.7,64.6,30.10,SE,128,2.3,2.4,93,0.00,CLR,,0.00,0.0,WeatherDisplay:10.37,2013-01-14 10:19:00,
2013-01-14 05:29:00,66.4,64.3,30.10,SE,128,3.4,3.4,93,0.00,CLR,,0.00,0.0,WeatherDisplay:10.37,2013-01-14 10:29:00,
2013-01-14 05:48:00,65.8,64.0,30.10,SE,126,1.1,1.1,94,0.00,CLR,,0.00,0.0,WeatherDisplay:10.37,2013-01-14 10:48:00,
2013-01-14 05:56:00,65.4,63.6,30.10,SE,126,3.4,3.4,94,0.00,CLR,,0.00,0.0,WeatherDisplay:10.37,2013-01-14 10:56:00,
2013-01-14 06:00:00,65.1,63.3,30.11,SE,126,0.0,0.0,94,0.00,CLR,,0.00,0.0,WeatherDisplay:10.37,2013-01-14 11:00:00,
2013-01-14 06:01:00,65.3,63.8,30.11,SE,126,2.3,2.3,95,0.00,CLR,,0.00,0.0,WeatherDisplay:10.37,2013-01-14 11:01:00,
2013-01-14 06:06:00,65.2,63.4,30.11,SE,126,1.1,1.1,94,0.00,CLR,,0.00,0.0,WeatherDisplay:10.37,2013-01-14 11:06:00,
2013-01-14 06:20:00,64.4,62.9,30.11,SE,126,1.1,0.0,95,0.00,CLR,,0.00,0.0,WeatherDisplay:10.37,2013-01-14 11:20:00,
2013-01-14 06:35:00,64.0,62.5,30.12,SE,126,2.3,2.3,95,0.00,CLR,,0.00,0.0,WeatherDisplay:10.37,2013-01-14 11:35:00,
2013-01-14 06:56:00,63.8,62.6,30.12,SE,126,1.1,1.1,96,1.13,RA,,1.13,0.0,WeatherDisplay:10.37,2013-01-14 11:56:00,
2013-01-14 07:00:00,63.5,62.3,30.13,SE,126,1.1,1.1,96,1.13,OVC,,1.13,0.0,WeatherDisplay:10.37,2013-01-14 12:00:00,
2013-01-14 07:01:00,63.6,62.1,30.12,SE,126,0.0,0.1,95,1.13,OVC,,1.13,0.0,WeatherDisplay:10.37,2013-01-14 12:01:00,
2013-01-14 07:06:00,63.5,62.3,30.13,SE,126,1.1,0.0,96,1.13,OVC,,1.13,0.0,WeatherDisplay:10.37,2013-01-14 12:06:00,
2013-01-14 07:19:00,63.1,61.9,30.13,SE,126,1.1,1.1,96,1.13,OVC,,1.13,0.0,WeatherDisplay:10.37,2013-01-14 12:19:00,
2013-01-14 07:45:00,63.0,62.1,30.14,SE,126,1.1,1.1,97,1.13,OVC,,1.13,14.0,WeatherDisplay:10.37,2013-01-14 12:45:00,
2013-01-14 07:56:00,63.1,62.2,30.14,SE,126,0.0,1.2,97,0.00,OVC,,1.13,23.0,WeatherDisplay:10.37,2013-01-14 12:56:00,
2013-01-14 08:00:00,63.6,62.7,30.14,ESE,121,3.0,3.0,97,0.00,OVC,,1.13,49.0,WeatherDisplay:10.37,2013-01-14 13:00:00,
2013-01-14 08:01:00,63.3,62.4,30.14,SE,126,3.4,3.4,97,0.00,OVC,,1.13,26.0,WeatherDisplay:10.37,2013-01-14 13:01:00,
2013-01-14 08:06:00,63.4,62.5,30.14,SE,126,2.3,2.3,97,0.00,OVC,,1.13,37.0,WeatherDisplay:10.37,2013-01-14 13:06:00,
2013-01-14 08:19:00,64.1,63.2,30.15,ESE,111,0.0,0.0,97,0.00,OVC,,1.13,76.0,WeatherDisplay:10.37,2013-01-14 13:19:00,
2013-01-14 08:37:00,65.5,64.0,30.16,East,88,0.0,0.4,95,0.00,OVC,,1.13,128.0,WeatherDisplay:10.37,2013-01-14 13:37:00,
2013-01-14 08:49:00,66.5,64.4,30.16,East,88,4.6,4.6,93,0.00,OVC,,1.13,167.0,WeatherDisplay:10.37,2013-01-14 13:49:00,
2013-01-14 08:55:00,67.1,65.0,30.16,ESE,105,6.9,6.9,93,0.00,OVC,,1.13,188.0,WeatherDisplay:10.37,2013-01-14 13:55:00,
2013-01-14 09:00:00,67.8,65.4,30.16,SE,130,5.8,5.8,92,0.00,OVC,,1.13,204.0,WeatherDisplay:10.37,2013-01-14 14:00:00,
2013-01-14 09:05:00,67.9,65.2,30.17,ESE,117,4.6,4.6,91,0.00,OVC,,1.13,218.0,WeatherDisplay:10.37,2013-01-14 14:05:00,
2013-01-14 09:12:00,68.3,65.3,30.16,ESE,105,4.6,4.6,90,0.00,OVC,,1.13,241.0,WeatherDisplay:10.37,2013-01-14 14:12:00,
2013-01-14 09:18:00,68.7,65.3,30.15,SE,130,7.0,7.0,89,0.00,OVC,,1.13,258.0,WeatherDisplay:10.37,2013-01-14 14:18:00,
2013-01-14 09:28:00,69.5,65.8,30.16,ESE,115,8.1,8.1,88,0.00,OVC,,1.13,299.0,WeatherDisplay:10.37,2013-01-14 14:28:00,
2013-01-14 09:39:00,70.8,66.4,30.16,SE,129,3.4,3.4,86,0.00,BKN,,1.13,330.0,WeatherDisplay:10.37,2013-01-14 14:39:00,
2013-01-14 09:56:00,71.9,65.8,30.17,SE,124,6.9,6.9,81,0.00,BKN,,1.13,376.0,WeatherDisplay:10.37,2013-01-14 14:56:00,
2013-01-14 10:00:00,72.8,64.8,30.17,SSE,155,11.5,11.5,76,0.00,OVC,,1.13,366.0,WeatherDisplay:10.37,2013-01-14 15:00:00,
2013-01-14 10:01:00,72.5,66.0,30.17,SE,129,6.9,6.9,80,0.00,BKN,,1.13,399.0,WeatherDisplay:10.37,2013-01-14 15:01:00,
2013-01-14 10:06:00,72.8,65.2,30.17,SE,132,6.9,6.9,77,0.00,BKN,,1.13,443.0,WeatherDisplay:10.37,2013-01-14 15:06:00,
2013-01-14 10:23:00,73.0,65.0,30.17,SSE,164,9.2,9.2,76,0.00,OVC,,1.13,200.0,WeatherDisplay:10.37,2013-01-14 15:23:00,
2013-01-14 10:52:00,74.5,64.9,30.16,SSE,162,9.2,9.2,72,0.00,OVC,,1.13,397.0,WeatherDisplay:10.37,2013-01-14 15:52:00,
2013-01-14 10:57:00,74.8,64.8,30.16,SE,140,10.3,10.3,71,0.00,SCT,,1.13,624.0,WeatherDisplay:10.37,2013-01-14 15:57:00,
2013-01-14 11:00:00,74.9,64.5,30.16,SE,132,7.0,7.0,70,0.00,SCT,,1.13,671.0,WeatherDisplay:10.37,2013-01-14 16:00:00,
2013-01-14 11:02:00,74.6,64.6,30.16,ESE,123,8.0,8.0,71,0.00,OVC,,1.13,266.0,WeatherDisplay:10.37,2013-01-14 16:02:00,
2013-01-14 11:07:00,74.7,64.3,30.16,SSE,167,9.2,9.2,70,0.00,SCT,,1.13,671.0,WeatherDisplay:10.37,2013-01-14 16:07:00,
2013-01-14 11:21:00,75.4,64.1,30.15,SSE,149,10.3,10.3,68,0.00,SCT,,1.13,671.0,WeatherDisplay:10.37,2013-01-14 16:21:00,
2013-01-14 11:30:00,75.4,64.5,30.15,SSE,147,8.1,8.1,69,0.00,SCT,,1.13,742.0,WeatherDisplay:10.37,2013-01-14 16:30:00,
2013-01-14 11:37:00,76.0,64.7,30.15,SSE,153,4.6,4.6,68,0.00,OVC,,1.13,383.0,WeatherDisplay:10.37,2013-01-14 16:37:00,
2013-01-14 11:44:00,75.3,64.0,30.15,SE,131,10.3,10.3,68,0.00,OVC,,1.13,371.0,WeatherDisplay:10.37,2013-01-14 16:44:00,
2013-01-14 11:56:00,76.5,64.3,30.14,ESE,119,9.2,9.2,66,0.00,SCT,,1.13,737.0,WeatherDisplay:10.37,2013-01-14 16:56:00,
2013-01-14 12:00:00,77.5,64.4,30.15,ESE,104,8.1,8.1,64,0.00,SCT,,1.13,643.0,WeatherDisplay:10.37,2013-01-14 17:00:00,
2013-01-14 12:01:00,76.4,64.6,30.14,SE,134,8.0,8.0,67,0.00,SCT,,1.13,694.0,WeatherDisplay:10.37,2013-01-14 17:01:00,
2013-01-14 12:06:00,77.1,65.3,30.14,NNE,32,3.4,3.4,67,0.00,SCT,,1.13,729.0,WeatherDisplay:10.37,2013-01-14 17:06:00,
2013-01-14 12:16:00,76.4,64.6,30.14,ESE,107,8.1,8.1,67,0.00,OVC,,1.13,200.0,WeatherDisplay:10.37,2013-01-14 17:16:00,
2013-01-14 12:42:00,77.3,62.8,30.13,SSE,154,6.9,6.9,61,0.00,SCT,,1.13,714.0,WeatherDisplay:10.37,2013-01-14 17:42:00,
2013-01-14 12:56:00,77.3,61.9,30.12,SE,143,10.3,10.3,59,0.00,OVC,,1.13,227.0,WeatherDisplay:10.37,2013-01-14 17:56:00,
2013-01-14 13:00:00,76.8,62.3,30.12,SSE,155,11.5,11.5,61,0.00,SCT,,1.13,733.0,WeatherDisplay:10.37,2013-01-14 18:00:00,
2013-01-14 13:01:00,76.6,62.6,30.12,SSE,162,8.1,8.1,62,0.00,OVC,,1.13,202.0,WeatherDisplay:10.37,2013-01-14 18:01:00,
2013-01-14 13:06:00,76.7,62.7,30.11,SSE,153,8.1,8.1,62,0.00,OVC,,1.13,171.0,WeatherDisplay:10.37,2013-01-14 18:06:00,
2013-01-14 13:19:00,77.6,62.1,30.11,SE,143,11.5,11.5,59,0.00,SCT,,1.13,710.0,WeatherDisplay:10.37,2013-01-14 18:19:00,
2013-01-14 13:56:00,78.5,61.5,30.10,East,98,8.1,8.1,56,0.00,OVC,,1.13,647.0,WeatherDisplay:10.37,2013-01-14 18:56:00,
2013-01-14 14:00:00,78.4,61.9,30.10,SE,126,5.8,5.8,57,0.00,SCT,,1.13,670.0,WeatherDisplay:10.37,2013-01-14 19:00:00,
2013-01-14 14:01:00,78.7,62.2,30.10,SSE,148,6.9,7.0,57,0.00,SCT,,1.13,659.0,WeatherDisplay:10.37,2013-01-14 19:01:00,
2013-01-14 14:06:00,78.4,61.9,30.10,SE,126,5.8,5.8,57,0.00,SCT,,1.13,670.0,WeatherDisplay:10.37,2013-01-14 19:06:00,
2013-01-14 14:12:00,78.3,61.3,30.10,East,92,3.4,6.5,56,0.00,SCT,,1.13,585.0,WeatherDisplay:10.37,2013-01-14 19:12:00,
2013-01-14 14:28:00,79.0,62.0,30.10,SE,140,3.4,3.4,56,0.00,SCT,,1.13,608.0,WeatherDisplay:10.37,2013-01-14 19:28:00,
2013-01-14 14:34:00,79.1,61.0,30.10,SE,146,10.3,10.3,54,0.00,SCT,,1.13,587.0,WeatherDisplay:10.37,2013-01-14 19:34:00,
2013-01-14 14:53:00,79.2,61.1,30.09,SE,125,6.9,7.6,54,0.00,SCT,,1.13,555.0,WeatherDisplay:10.37,2013-01-14 19:53:00,
2013-01-14 14:58:00,79.2,61.1,30.09,SE,125,6.9,7.6,54,0.00,SCT,,1.13,555.0,WeatherDisplay:10.37,2013-01-14 19:58:00,
2013-01-14 15:00:00,79.4,61.3,30.10,SSE,153,5.8,6.1,54,0.00,FEW,,1.13,552.0,WeatherDisplay:10.37,2013-01-14 20:00:00,
2013-01-14 15:03:00,79.4,61.3,30.10,SSE,153,5.8,6.1,54,0.00,FEW,,1.13,552.0,WeatherDisplay:10.37,2013-01-14 20:03:00,
2013-01-14 15:08:00,79.4,61.3,30.10,SSE,153,5.8,6.1,54,0.00,FEW,,1.13,552.0,WeatherDisplay:10.37,2013-01-14 20:08:00,
2013-01-14 15:17:00,78.9,61.4,30.10,SE,144,3.4,4.9,55,0.00,FEW,,1.13,517.0,WeatherDisplay:10.37,2013-01-14 20:17:00,
2013-01-14 15:23:00,78.6,61.1,30.10,SSE,159,8.1,8.1,55,0.00,FEW,,1.13,496.0,WeatherDisplay:10.37,2013-01-14 20:23:00,
2013-01-14 15:56:00,78.5,63.0,30.10,SW,215,3.4,3.4,59,0.00,SCT,,1.13,339.0,WeatherDisplay:10.37,2013-01-14 20:56:00,
2013-01-14 16:00:00,78.2,62.7,30.10,SW,232,3.0,3.0,59,0.00,FEW,,1.13,343.0,WeatherDisplay:10.37,2013-01-14 21:00:00,
2013-01-14 16:01:00,78.3,62.3,30.10,South,182,3.4,3.4,58,0.00,SCT,,1.13,374.0,WeatherDisplay:10.37,2013-01-14 21:01:00,
2013-01-14 16:06:00,78.2,62.2,30.10,SSW,202,9.2,9.2,58,0.00,FEW,,1.13,359.0,WeatherDisplay:10.37,2013-01-14 21:06:00,
2013-01-14 16:38:00,76.9,62.0,30.11,WSW,240,7.0,7.0,60,0.00,FEW,,1.13,243.0,WeatherDisplay:10.37,2013-01-14 21:38:00,
2013-01-14 16:44:00,76.6,61.7,30.10,WSW,245,6.0,6.0,60,0.00,SCT,,1.13,218.0,WeatherDisplay:10.37,2013-01-14 21:44:00,
2013-01-14 16:54:00,76.3,61.4,30.11,SW,225,3.4,3.4,60,0.00,SCT,,1.13,178.0,WeatherDisplay:10.37,2013-01-14 21:54:00,
2013-01-14 16:59:00,76.3,61.4,30.11,SSW,213,4.6,4.6,60,0.00,SCT,,1.13,156.0,WeatherDisplay:10.37,2013-01-14 21:59:00,
2013-01-14 17:00:00,75.9,61.5,30.11,SW,221,3.4,3.4,61,0.00,SCT,,1.13,121.0,WeatherDisplay:10.37,2013-01-14 22:00:00,
2013-01-14 17:04:00,76.2,61.8,30.11,SSW,211,2.3,2.3,61,0.00,SCT,,1.13,139.0,WeatherDisplay:10.37,2013-01-14 22:04:00,
2013-01-14 17:09:00,75.9,61.5,30.11,SW,225,3.4,3.4,61,0.00,SCT,,1.13,123.0,WeatherDisplay:10.37,2013-01-14 22:09:00,
2013-01-14 17:56:00,73.1,61.1,30.12,South,183,0.0,0.0,66,0.00,OVC,,1.13,5.0,WeatherDisplay:10.37,2013-01-14 22:56:00,
2013-01-14 18:00:00,71.5,61.2,30.12,South,183,0.0,0.0,70,0.00,CLR,,1.13,0.0,WeatherDisplay:10.37,2013-01-14 23:00:00,
2013-01-14 18:01:00,72.4,61.2,30.12,South,183,0.0,0.0,68,0.00,CLR,,1.13,0.0,WeatherDisplay:10.37,2013-01-14 23:01:00,
2013-01-14 18:06:00,71.9,61.2,30.12,South,183,0.0,0.0,69,0.00,CLR,,1.13,0.0,WeatherDisplay:10.37,2013-01-14 23:06:00,
2013-01-14 18:56:00,68.9,59.9,30.12,South,183,0.0,0.0,73,0.00,CLR,,1.13,0.0,WeatherDisplay:10.37,2013-01-14 23:56:00,
2013-01-14 19:00:00,68.0,59.8,30.12,South,183,0.0,0.0,75,0.00,CLR,,1.13,0.0,WeatherDisplay:10.37,2013-01-15 00:00:00,
2013-01-14 19:01:00,68.8,59.8,30.12,South,183,1.1,1.1,73,0.00,CLR,,1.13,0.0,WeatherDisplay:10.37,2013-01-15 00:01:00,
2013-01-14 19:06:00,68.4,59.8,30.12,South,183,0.0,0.0,74,0.00,CLR,,1.13,0.0,WeatherDisplay:10.37,2013-01-15 00:06:00,
2013-01-14 19:13:00,67.7,59.5,30.12,South,183,0.0,0.0,75,0.00,CLR,,1.13,0.0,WeatherDisplay:10.37,2013-01-15 00:13:00,
2013-01-14 19:21:00,67.5,59.7,30.12,South,183,0.0,0.0,76,0.00,CLR,,1.13,0.0,WeatherDisplay:10.37,2013-01-15 00:21:00,
2013-01-14 19:38:00,67.3,59.5,30.13,South,183,0.0,0.0,76,0.00,CLR,,1.13,0.0,WeatherDisplay:10.37,2013-01-15 00:38:00,
2013-01-14 19:51:00,67.0,59.5,30.13,South,183,0.0,0.0,77,0.00,CLR,,1.13,0.0,WeatherDisplay:10.37,2013-01-15 00:51:00,
2013-01-14 19:56:00,66.9,59.8,30.13,South,183,0.0,0.0,78,0.00,CLR,,1.13,0.0,WeatherDisplay:10.37,2013-01-15 00:56:00,
2013-01-14 20:00:00,66.3,59.6,30.13,South,183,0.0,0.0,79,0.00,CLR,,1.13,0.0,WeatherDisplay:10.37,2013-01-15 01:00:00,
2013-01-14 20:01:00,66.6,59.5,30.13,South,183,0.0,0.0,78,0.00,CLR,,1.13,0.0,WeatherDisplay:10.37,2013-01-15 01:01:00,
2013-01-14 20:06:00,66.4,59.7,30.13,South,183,0.0,0.0,79,0.00,CLR,,1.13,0.0,WeatherDisplay:10.37,2013-01-15 01:06:00,
2013-01-14 20:13:00,66.2,59.5,30.13,South,183,0.0,0.0,79,0.00,CLR,,1.13,0.0,WeatherDisplay:10.37,2013-01-15 01:13:00,
2013-01-14 20:21:00,66.0,59.3,30.13,South,183,0.0,0.0,79,0.00,CLR,,1.13,0.0,WeatherDisplay:10.37,2013-01-15 01:21:00,
2013-01-14 20:27:00,65.7,59.4,30.13,South,183,0.0,0.0,80,0.00,CLR,,1.13,0.0,WeatherDisplay:10.37,2013-01-15 01:27:00,
2013-01-14 20:35:00,65.4,59.4,30.12,South,183,0.0,0.0,81,0.00,CLR,,1.13,0.0,WeatherDisplay:10.37,2013-01-15 01:35:00,
2013-01-14 20:56:00,65.0,59.4,30.12,South,183,0.0,0.0,82,0.00,CLR,,1.13,0.0,WeatherDisplay:10.37,2013-01-15 01:56:00,
2013-01-14 21:00:00,64.6,59.7,30.13,South,183,0.0,0.0,84,0.00,CLR,,1.13,0.0,WeatherDisplay:10.37,2013-01-15 02:00:00,
2013-01-14 21:01:00,64.9,59.3,30.12,South,183,0.0,0.0,82,0.00,CLR,,1.13,0.0,WeatherDisplay:10.37,2013-01-15 02:01:00,
2013-01-14 21:06:00,64.6,59.3,30.12,South,183,0.0,0.0,83,0.00,CLR,,1.13,0.0,WeatherDisplay:10.37,2013-01-15 02:06:00,
2013-01-14 21:33:00,64.0,59.4,30.13,South,183,0.0,0.0,85,0.00,CLR,,1.13,0.0,WeatherDisplay:10.37,2013-01-15 02:33:00,
2013-01-14 21:56:00,63.7,59.4,30.13,South,183,0.0,0.0,86,0.00,CLR,,1.13,0.0,WeatherDisplay:10.37,2013-01-15 02:56:00,
2013-01-14 22:00:00,63.4,59.5,30.13,South,183,0.0,0.0,87,0.00,CLR,,1.13,0.0,WeatherDisplay:10.37,2013-01-15 03:00:00,
2013-01-14 22:01:00,63.6,59.3,30.13,South,183,0.0,0.0,86,0.00,CLR,,1.13,0.0,WeatherDisplay:10.37,2013-01-15 03:01:00,
2013-01-14 22:06:00,63.5,59.2,30.13,South,183,0.0,0.0,86,0.00,CLR,,1.13,0.0,WeatherDisplay:10.37,2013-01-15 03:06:00,
2013-01-14 22:26:00,63.5,59.6,30.13,South,183,0.0,0.0,87,0.00,CLR,,1.13,0.0,WeatherDisplay:10.37,2013-01-15 03:26:00,
2013-01-14 22:49:00,63.1,59.5,30.12,SSE,163,2.3,2.3,88,0.00,CLR,,1.13,0.0,WeatherDisplay:10.37,2013-01-15 03:49:00,
2013-01-14 22:56:00,63.4,59.5,30.12,SSE,159,1.1,1.1,87,0.00,CLR,,1.13,0.0,WeatherDisplay:10.37,2013-01-15 03:56:00,
2013-01-14 23:00:00,63.5,59.9,30.12,SSE,159,0.0,0.0,88,0.00,CLR,,1.13,0.0,WeatherDisplay:10.37,2013-01-15 04:00:00,
2013-01-14 23:01:00,63.4,59.5,30.12,SSE,159,0.0,0.0,87,0.00,CLR,,1.13,0.0,WeatherDisplay:10.37,2013-01-15 04:01:00,
2013-01-14 23:06:00,63.4,59.5,30.12,SSE,159,0.0,0.0,87,0.00,CLR,,1.13,0.0,WeatherDisplay:10.37,2013-01-15 04:06:00,
2013-01-14 23:15:00,63.6,60.0,30.13,SSE,159,0.0,0.0,88,0.00,CLR,,1.13,0.0,WeatherDisplay:10.37,2013-01-15 04:15:00,
2013-01-14 23:56:00,62.9,59.9,30.13,SSE,159,0.0,0.0,90,0.00,CLR,,1.13,0.0,WeatherDisplay:10.37,2013-01-15 04:56:00,